Time;durP1;ratioP1;P1;durP2;ratioP2;P2;SDS_P1;SDS_P2;PMS_P1;PMS_P2;Temp;Humidity;BMP_temperature;BMP_pressure;BME280_temperature;BME280_humidity;BME280_pressure;Samples;Min_cycle;Max_cycle;Signal;HPM_P1;HPM_P2
2022/05/23 00:00:11;;;;;;;1.65;1.02;;;14.30;99.90;;;;;;5051273;28;20519;-70
2022/05/23 00:02:37;;;;;;;1.23;0.85;;;14.30;99.90;;;;;;5067688;28;20174;-70
2022/05/23 00:05:03;;;;;;;1.98;0.70;;;14.30;99.90;;;;;;5067061;28;20119;-70
2022/05/23 00:07:32;;;;;;;2.95;0.75;;;14.30;99.90;;;;;;5067640;28;20476;-70
2022/05/23 00:09:58;;;;;;;3.47;0.70;;;14.20;99.90;;;;;;5049415;28;20032;-70
2022/05/23 00:12:24;;;;;;;4.38;1.40;;;14.30;99.90;;;;;;5067382;28;20127;-70
2022/05/23 00:14:51;;;;;;;1.15;0.73;;;14.20;99.90;;;;;;5062703;28;20116;-70
2022/05/23 00:17:17;;;;;;;1.48;0.70;;;14.20;99.90;;;;;;5064146;28;20088;-70
2022/05/23 00:19:43;;;;;;;1.80;0.60;;;14.20;99.90;;;;;;5063569;28;20045;-70
2022/05/23 00:22:09;;;;;;;1.00;0.70;;;14.10;99.90;;;;;;5063646;28;20175;-70
2022/05/23 00:24:35;;;;;;;0.98;0.60;;;14.20;99.90;;;;;;5062675;28;20041;-70
2022/05/23 00:27:01;;;;;;;0.88;0.63;;;14.10;99.90;;;;;;5055487;28;20044;-70
2022/05/23 00:29:27;;;;;;;1.73;0.70;;;14.10;99.90;;;;;;5067251;28;20504;-70
2022/05/23 00:37:22;;;;;;;3.33;0.90;;;14.00;99.90;;;;;;5067090;28;20040;-70
2022/05/23 00:39:48;;;;;;;2.55;0.95;;;14.00;99.90;;;;;;5065906;28;20036;-70
2022/05/23 00:45:03;;;;;;;1.40;0.63;;;14.00;99.90;;;;;;5066825;28;20048;-70
2022/05/23 00:47:33;;;;;;;2.95;1.10;;;14.00;99.90;;;;;;5066718;28;20489;-70
2022/05/23 00:49:59;;;;;;;2.20;1.05;;;13.90;99.90;;;;;;5049869;28;20040;-70
2022/05/23 00:52:42;;;;;;;1.35;0.80;;;13.90;99.90;;;;;;5050560;28;20371;-70
2022/05/23 00:55:16;;;;;;;1.27;0.80;;;13.90;99.90;;;;;;5066013;28;20065;-70
2022/05/23 00:57:45;;;;;;;1.52;0.98;;;13.90;99.90;;;;;;5066805;28;20075;-70
2022/05/23 01:00:11;;;;;;;1.27;0.70;;;13.80;99.90;;;;;;5066686;28;20457;-70
2022/05/23 01:02:38;;;;;;;1.05;0.70;;;13.80;99.90;;;;;;5067193;28;20045;-70
2022/05/23 01:05:07;;;;;;;1.60;0.93;;;13.80;99.90;;;;;;5066640;28;20520;-70
2022/05/23 01:07:33;;;;;;;4.00;1.05;;;13.80;99.90;;;;;;5067141;28;20045;-70
2022/05/23 01:09:58;;;;;;;2.50;0.98;;;13.80;99.90;;;;;;5065884;28;20038;-70
2022/05/23 01:12:25;;;;;;;2.75;0.85;;;13.70;99.90;;;;;;5066722;28;20626;-70
2022/05/23 01:14:54;;;;;;;1.27;0.80;;;13.70;99.90;;;;;;5066736;28;20086;-71
2022/05/23 01:17:22;;;;;;;1.38;0.85;;;13.70;99.90;;;;;;5068610;28;20055;-70
2022/05/23 01:19:48;;;;;;;1.35;0.73;;;13.70;99.90;;;;;;5070169;28;20036;-70
2022/05/23 01:22:59;;;;;;;1.27;0.80;;;13.70;99.90;;;;;;5070479;28;20119;-70
2022/05/23 01:25:27;;;;;;;1.42;0.90;;;13.70;99.90;;;;;;5019226;28;20048;-70
2022/05/23 01:27:53;;;;;;;1.08;0.77;;;13.60;99.90;;;;;;5070224;28;20052;-70
2022/05/23 01:30:20;;;;;;;0.95;0.68;;;13.70;99.90;;;;;;5070009;28;20050;-70
2022/05/23 01:32:45;;;;;;;2.15;1.20;;;13.60;99.90;;;;;;5069945;28;20302;-70
2022/05/23 01:35:12;;;;;;;1.42;0.95;;;13.60;99.90;;;;;;5069617;28;20629;-70
2022/05/23 01:37:38;;;;;;;2.22;0.93;;;13.60;99.90;;;;;;5069851;28;20304;-70
2022/05/23 01:40:06;;;;;;;3.38;1.20;;;13.70;99.90;;;;;;5069100;28;20225;-70
2022/05/23 01:42:32;;;;;;;1.88;1.00;;;13.70;99.90;;;;;;5053296;28;20044;-70
2022/05/23 01:44:58;;;;;;;1.20;0.80;;;13.70;99.90;;;;;;5070041;28;20039;-70
2022/05/23 01:47:23;;;;;;;1.65;0.95;;;13.70;99.90;;;;;;5069941;28;20041;-70
2022/05/23 01:49:49;;;;;;;1.40;0.70;;;13.60;99.90;;;;;;5069491;28;20124;-70
2022/05/23 01:52:15;;;;;;;2.75;1.33;;;13.70;99.90;;;;;;5069935;28;20039;-70
2022/05/23 01:54:41;;;;;;;1.52;1.10;;;13.60;99.90;;;;;;5068767;28;20520;-70
2022/05/23 01:57:09;;;;;;;3.13;1.27;;;13.60;99.90;;;;;;5069616;28;20048;-70
2022/05/23 02:02:19;;;;;;;2.33;0.90;;;13.60;99.90;;;;;;5069640;28;20048;-70
2022/05/23 02:04:47;;;;;;;1.45;1.10;;;13.60;99.90;;;;;;5068981;28;20044;-70
2022/05/23 02:07:13;;;;;;;3.65;1.08;;;13.60;99.90;;;;;;5069248;28;20049;-70
2022/05/23 02:09:40;;;;;;;2.15;1.10;;;13.60;99.90;;;;;;5068423;28;20493;-70
2022/05/23 02:12:07;;;;;;;1.13;1.00;;;13.60;99.90;;;;;;5069341;28;20119;-70
2022/05/23 02:14:34;;;;;;;2.35;0.82;;;13.60;99.90;;;;;;5068891;28;20044;-70
2022/05/23 02:17:00;;;;;;;1.10;0.95;;;13.60;99.90;;;;;;5049636;28;20491;-70
2022/05/23 02:19:26;;;;;;;2.65;1.00;;;13.60;99.90;;;;;;5049513;28;20045;-70
2022/05/23 02:21:52;;;;;;;1.75;1.10;;;13.60;99.90;;;;;;5049409;28;20106;-70
2022/05/23 02:24:18;;;;;;;1.52;0.90;;;13.60;99.90;;;;;;5049117;28;20055;-70
2022/05/23 02:26:43;;;;;;;2.08;0.80;;;13.60;99.90;;;;;;5054582;28;20044;-70
2022/05/23 02:29:10;;;;;;;1.35;0.90;;;13.60;99.90;;;;;;5068840;28;20044;-70
2022/05/23 02:31:36;;;;;;;3.47;0.95;;;13.60;99.90;;;;;;5052367;28;20055;-70
2022/05/23 02:34:02;;;;;;;1.17;0.80;;;13.60;99.90;;;;;;5052563;28;20048;-70
2022/05/23 02:36:29;;;;;;;1.38;0.95;;;13.60;99.90;;;;;;5069272;28;20052;-70
2022/05/23 02:38:55;;;;;;;1.15;0.88;;;13.60;99.90;;;;;;5052544;28;20050;-70
2022/05/23 02:41:22;;;;;;;3.17;0.90;;;13.60;99.90;;;;;;5051207;28;20577;-70
2022/05/23 02:43:48;;;;;;;1.95;1.10;;;13.60;99.90;;;;;;5068759;28;20501;-70
2022/05/23 02:46:14;;;;;;;2.05;1.17;;;13.60;99.90;;;;;;5068613;28;20064;-70
2022/05/23 02:48:39;;;;;;;1.65;0.90;;;13.50;99.90;;;;;;5069279;28;20398;-70
2022/05/23 02:51:05;;;;;;;4.70;0.90;;;13.60;99.90;;;;;;5068474;28;20163;-70
2022/05/23 02:53:31;;;;;;;1.30;1.00;;;13.50;99.90;;;;;;5052618;28;20460;-70
2022/05/23 02:55:57;;;;;;;4.05;1.40;;;13.50;99.90;;;;;;5067390;28;20124;-70
2022/05/23 02:58:22;;;;;;;2.28;1.30;;;13.50;99.90;;;;;;5068517;28;20040;-70
2022/05/23 03:00:48;;;;;;;2.65;1.02;;;13.50;99.90;;;;;;5068617;28;20082;-70
2022/05/23 03:03:14;;;;;;;1.48;1.00;;;13.50;99.90;;;;;;5051564;28;20048;-70
2022/05/23 03:05:43;;;;;;;3.63;1.38;;;13.60;99.90;;;;;;5069322;28;20068;-70
2022/05/23 03:08:11;;;;;;;2.88;1.23;;;13.50;99.90;;;;;;5068393;28;20124;-70
2022/05/23 03:10:36;;;;;;;1.23;0.80;;;13.60;99.90;;;;;;5050766;28;20044;-70
2022/05/23 03:13:02;;;;;;;3.60;1.30;;;13.50;99.90;;;;;;5051804;28;20045;-70
2022/05/23 03:15:29;;;;;;;1.50;1.05;;;13.60;99.90;;;;;;5067490;28;20036;-70
2022/05/23 03:17:54;;;;;;;2.42;1.10;;;13.50;99.90;;;;;;5068003;28;20041;-70
2022/05/23 03:20:20;;;;;;;1.70;1.00;;;13.50;99.90;;;;;;5067778;28;20091;-70
2022/05/23 03:28:14;;;;;;;1.13;0.90;;;13.50;99.90;;;;;;5067947;28;20269;-70
2022/05/23 03:30:40;;;;;;;1.55;1.05;;;13.50;99.90;;;;;;5068319;28;20455;-70
2022/05/23 03:33:07;;;;;;;2.97;1.38;;;13.60;99.90;;;;;;5067863;28;20619;-70
2022/05/23 03:35:34;;;;;;;1.77;1.25;;;13.50;99.90;;;;;;5067806;28;20052;-70
2022/05/23 03:38:01;;;;;;;1.30;1.00;;;13.50;99.90;;;;;;5067805;28;20056;-70
2022/05/23 03:40:27;;;;;;;2.38;1.40;;;13.50;99.90;;;;;;5066139;28;20482;-70
2022/05/23 03:42:54;;;;;;;1.85;0.90;;;13.50;99.90;;;;;;5068157;28;20059;-70
2022/05/23 03:45:20;;;;;;;3.03;1.30;;;13.50;99.90;;;;;;5067828;28;20051;-70
2022/05/23 03:47:46;;;;;;;2.00;1.20;;;13.50;99.90;;;;;;5067930;28;20436;-70
2022/05/23 03:50:12;;;;;;;2.25;1.20;;;13.50;99.90;;;;;;5050786;28;20040;-70
2022/05/23 03:52:38;;;;;;;2.38;1.40;;;13.50;99.90;;;;;;5051229;28;20051;-70
2022/05/23 03:55:04;;;;;;;4.15;1.30;;;13.50;99.90;;;;;;5066307;28;20037;-70
2022/05/23 03:57:30;;;;;;;4.57;1.10;;;13.50;99.90;;;;;;5051175;28;20055;-70
2022/05/23 03:59:57;;;;;;;1.77;1.10;;;13.50;99.90;;;;;;5050496;28;20052;-70
2022/05/23 04:02:23;;;;;;;1.60;1.33;;;13.50;99.90;;;;;;5050905;28;20060;-70
2022/05/23 04:04:49;;;;;;;1.45;1.17;;;13.50;99.90;;;;;;5067039;28;20040;-70
2022/05/23 04:07:15;;;;;;;1.70;1.15;;;13.50;99.90;;;;;;5067463;28;20041;-70
2022/05/23 04:09:41;;;;;;;1.85;1.40;;;13.50;99.90;;;;;;5066256;28;20047;-70
2022/05/23 04:12:07;;;;;;;2.22;1.15;;;13.50;99.90;;;;;;5067191;28;20044;-70
2022/05/23 04:14:33;;;;;;;2.25;1.65;;;13.40;99.90;;;;;;5066345;28;20467;-70
2022/05/23 04:16:59;;;;;;;2.15;1.55;;;13.40;99.90;;;;;;5047504;28;20045;-70
2022/05/23 04:19:25;;;;;;;1.98;1.17;;;13.40;99.90;;;;;;5047150;28;20037;-70
2022/05/23 04:21:52;;;;;;;3.33;1.48;;;13.40;99.90;;;;;;5047161;28;20114;-70
2022/05/23 04:24:19;;;;;;;3.08;1.67;;;13.40;99.90;;;;;;5063323;28;20041;-70
2022/05/23 04:26:51;;;;;;;2.38;1.50;;;13.40;99.90;;;;;;5052966;28;20177;-70
2022/05/23 04:29:16;;;;;;;1.80;1.23;;;13.40;99.90;;;;;;5067153;28;20497;-70
2022/05/23 04:31:42;;;;;;;2.42;1.60;;;13.40;99.90;;;;;;5069418;28;20059;-70
2022/05/23 04:36:53;;;;;;;1.73;1.27;;;13.40;99.90;;;;;;5088444;28;20056;-70
2022/05/23 04:39:18;;;;;;;3.63;1.40;;;13.30;99.90;;;;;;5070019;28;20082;-70
2022/05/23 04:41:44;;;;;;;3.25;1.40;;;13.30;99.90;;;;;;5070618;28;20088;-70
2022/05/23 04:44:10;;;;;;;2.28;1.40;;;13.30;99.90;;;;;;5070652;28;20090;-70
2022/05/23 04:46:35;;;;;;;2.20;1.33;;;13.30;99.90;;;;;;5088528;28;20040;-70
2022/05/23 04:51:45;;;;;;;2.40;1.40;;;13.40;99.90;;;;;;5073065;28;20244;-70
2022/05/23 04:54:11;;;;;;;3.53;1.63;;;13.40;99.90;;;;;;5073473;28;20674;-70
2022/05/23 04:56:37;;;;;;;2.60;1.33;;;13.40;99.90;;;;;;5073616;28;20077;-70
2022/05/23 04:59:04;;;;;;;1.90;1.20;;;13.50;99.90;;;;;;5057407;28;20055;-70
2022/05/23 05:01:30;;;;;;;2.45;1.60;;;13.50;99.90;;;;;;5074341;28;20061;-70
2022/05/23 05:03:57;;;;;;;2.03;1.23;;;13.50;99.90;;;;;;5073451;28;20076;-70
2022/05/23 05:06:24;;;;;;;2.92;1.60;;;13.60;99.90;;;;;;5073689;28;20048;-70
2022/05/23 05:08:50;;;;;;;3.78;1.75;;;13.70;99.90;;;;;;5074048;28;20047;-70
2022/05/23 05:11:16;;;;;;;5.25;1.60;;;13.70;99.90;;;;;;5072817;28;20048;-70
2022/05/23 05:13:43;;;;;;;2.53;1.67;;;13.70;99.90;;;;;;5057341;28;20040;-70
2022/05/23 05:16:09;;;;;;;2.60;1.23;;;13.70;99.90;;;;;;5073411;28;20040;-70
2022/05/23 05:18:35;;;;;;;2.50;1.80;;;13.80;99.90;;;;;;5074004;28;20063;-70
2022/05/23 05:21:10;;;;;;;3.75;1.95;;;13.80;99.90;;;;;;5073890;28;20036;-70
2022/05/23 05:23:36;;;;;;;2.25;1.65;;;13.90;99.90;;;;;;5073812;28;20032;-70
2022/05/23 05:26:05;;;;;;;2.45;1.90;;;13.90;99.90;;;;;;5073036;28;20040;-70
2022/05/23 05:28:30;;;;;;;2.80;1.83;;;13.90;99.90;;;;;;5073540;28;20051;-70
2022/05/23 05:31:03;;;;;;;4.43;1.40;;;14.00;99.90;;;;;;5073104;28;20040;-70
2022/05/23 05:33:35;;;;;;;3.70;1.67;;;14.00;99.90;;;;;;5073368;28;20140;-70
2022/05/23 05:36:09;;;;;;;2.05;1.58;;;14.00;99.90;;;;;;5056356;28;20036;-70
2022/05/23 05:38:49;;;;;;;3.75;1.42;;;14.10;99.90;;;;;;5073755;28;20047;-70
2022/05/23 05:41:19;;;;;;;2.10;1.33;;;14.10;99.90;;;;;;5072175;28;20632;-70
2022/05/23 05:43:57;;;;;;;3.75;1.85;;;14.10;99.90;;;;;;5073338;28;20040;-70
2022/05/23 05:46:41;;;;;;;3.35;1.65;;;14.10;99.90;;;;;;5056589;28;20039;-70
2022/05/23 05:49:19;;;;;;;4.22;1.50;;;14.20;99.90;;;;;;5073237;28;20046;-70
2022/05/23 05:51:48;;;;;;;5.55;1.77;;;14.20;99.90;;;;;;5073402;28;20067;-70
2022/05/23 05:54:21;;;;;;;2.38;1.55;;;14.20;99.90;;;;;;5072823;28;20043;-70
2022/05/23 05:56:47;;;;;;;4.85;2.10;;;14.20;99.90;;;;;;5073255;28;20086;-70
2022/05/23 05:59:13;;;;;;;2.67;1.50;;;14.20;99.90;;;;;;5073103;28;20523;-70
2022/05/23 06:01:40;;;;;;;2.90;1.55;;;14.30;99.90;;;;;;5073333;28;20046;-70
2022/05/23 06:04:06;;;;;;;2.65;1.30;;;14.30;99.90;;;;;;5072584;28;20039;-70
2022/05/23 06:12:00;;;;;;;3.92;1.50;;;14.50;99.90;;;;;;5073430;28;20050;-70
2022/05/23 06:14:26;;;;;;;2.72;1.65;;;14.60;99.90;;;;;;5072865;28;20428;-70
2022/05/23 06:16:52;;;;;;;2.35;1.58;;;14.60;99.90;;;;;;5072585;28;20046;-70
2022/05/23 06:19:19;;;;;;;2.22;1.60;;;14.70;99.90;;;;;;5072978;28;20043;-70
2022/05/23 06:21:44;;;;;;;3.10;1.73;;;14.80;99.90;;;;;;5072666;28;20086;-70
2022/05/23 06:24:10;;;;;;;2.97;1.98;;;14.80;99.90;;;;;;5090167;28;20071;-70
2022/05/23 06:26:36;;;;;;;2.55;1.83;;;14.90;99.90;;;;;;5071961;28;20036;-70
2022/05/23 06:29:01;;;;;;;2.38;1.67;;;15.10;99.90;;;;;;5055972;28;20040;-70
2022/05/23 06:31:27;;;;;;;3.05;1.80;;;15.30;99.90;;;;;;5072066;28;20036;-70
2022/05/23 06:33:52;;;;;;;2.88;1.85;;;15.40;99.90;;;;;;5072468;28;20421;-70
2022/05/23 06:36:18;;;;;;;3.78;1.50;;;15.60;99.90;;;;;;5072008;28;20406;-70
2022/05/23 06:38:45;;;;;;;3.25;1.95;;;15.70;99.90;;;;;;5090340;28;20036;-70
2022/05/23 06:41:12;;;;;;;3.70;1.67;;;16.10;99.90;;;;;;5089291;28;20673;-70
2022/05/23 06:43:40;;;;;;;2.97;1.60;;;16.30;99.90;;;;;;5072499;28;20047;-70
2022/05/23 06:46:06;;;;;;;3.17;1.70;;;16.80;99.90;;;;;;5071928;28;20081;-70
2022/05/23 06:48:34;;;;;;;4.07;1.90;;;17.30;99.90;;;;;;5072088;28;20044;-70
2022/05/23 06:50:59;;;;;;;2.67;1.35;;;17.60;99.90;;;;;;5071624;28;20039;-70
2022/05/23 06:53:27;;;;;;;2.70;1.90;;;17.60;99.90;;;;;;5071992;28;20321;-70
2022/05/23 06:55:53;;;;;;;3.60;1.83;;;17.50;99.90;;;;;;5089375;28;20040;-70
2022/05/23 06:58:21;;;;;;;3.55;1.98;;;17.40;99.90;;;;;;5071502;28;20066;-70
2022/05/23 07:00:48;;;;;;;2.13;1.50;;;17.40;99.90;;;;;;5090042;28;20051;-70
2022/05/23 07:03:14;;;;;;;4.10;1.83;;;17.30;99.90;;;;;;5071751;28;20052;-70
2022/05/23 07:13:55;;;;;;;3.65;1.80;;;17.30;99.90;;;;;;5089683;28;20044;-70
2022/05/23 07:16:21;;;;;;;1.98;1.33;;;17.30;99.90;;;;;;5054999;28;20062;-70
2022/05/23 07:18:47;;;;;;;2.97;1.27;;;17.30;99.90;;;;;;5071612;28;20448;-70
2022/05/23 07:21:13;;;;;;;3.95;1.65;;;17.30;99.90;;;;;;5054691;28;20127;-70
2022/05/23 07:23:39;;;;;;;2.78;1.73;;;17.30;99.90;;;;;;5071825;28;20044;-70
2022/05/23 07:26:09;;;;;;;3.00;1.75;;;17.20;99.90;;;;;;5070463;28;20078;-70
2022/05/23 07:28:35;;;;;;;2.92;1.70;;;17.20;99.90;;;;;;5071523;28;20401;-70
2022/05/23 07:31:02;;;;;;;6.38;1.73;;;17.20;99.90;;;;;;5071441;28;20028;-70
2022/05/23 07:33:28;;;;;;;2.33;1.45;;;17.30;99.90;;;;;;5071385;28;20044;-70
2022/05/23 07:35:59;;;;;;;2.40;1.50;;;17.30;99.90;;;;;;5071041;28;20088;-70
2022/05/23 07:38:25;;;;;;;3.10;1.30;;;17.30;99.90;;;;;;5071094;28;20089;-70
2022/05/23 07:40:52;;;;;;;2.47;1.55;;;17.30;99.90;;;;;;5070402;28;20436;-70
2022/05/23 07:43:18;;;;;;;3.38;2.00;;;17.40;99.90;;;;;;5089216;28;20044;-70
2022/05/23 07:45:44;;;;;;;3.92;1.42;;;17.40;99.90;;;;;;5071228;28;20130;-70
2022/05/23 07:48:10;;;;;;;2.55;1.50;;;17.50;99.90;;;;;;5070683;28;20489;-70
2022/05/23 07:50:37;;;;;;;2.70;1.70;;;17.50;99.90;;;;;;5070341;28;20036;-70
2022/05/23 08:01:15;;;;;;;2.55;1.50;;;17.80;99.90;;;;;;5070523;28;20047;-70
2022/05/23 08:03:41;;;;;;;4.03;1.38;;;17.90;99.90;;;;;;5071101;28;20051;-70
2022/05/23 08:06:09;;;;;;;4.10;1.70;;;17.90;99.90;;;;;;5070701;28;20102;-70
2022/05/23 08:08:35;;;;;;;3.28;1.55;;;18.00;99.90;;;;;;5070759;28;20460;-70
2022/05/23 08:11:01;;;;;;;2.45;1.45;;;18.10;99.90;;;;;;5069785;28;20044;-70
2022/05/23 08:13:27;;;;;;;4.43;1.60;;;18.10;99.90;;;;;;5070731;28;20066;-70
2022/05/23 08:15:52;;;;;;;3.28;1.58;;;18.10;99.90;;;;;;5057432;28;20159;-70
2022/05/23 08:18:18;;;;;;;3.33;1.60;;;18.20;99.90;;;;;;5050272;28;20486;-70
2022/05/23 08:20:44;;;;;;;2.03;1.40;;;18.20;99.90;;;;;;5050525;28;20055;-70
2022/05/23 08:23:10;;;;;;;4.40;1.88;;;18.30;99.90;;;;;;5068815;28;20044;-70
2022/05/23 08:25:36;;;;;;;2.55;1.60;;;18.30;99.90;;;;;;5049123;28;20037;-70
2022/05/23 08:28:02;;;;;;;3.13;2.05;;;18.40;99.90;;;;;;5066848;28;20040;-70
2022/05/23 08:30:28;;;;;;;2.22;1.40;;;18.40;99.90;;;;;;5070700;28;20494;-70
2022/05/23 08:32:54;;;;;;;3.33;1.50;;;18.40;99.90;;;;;;5070458;28;20063;-70
2022/05/23 08:35:21;;;;;;;4.60;1.65;;;18.40;99.90;;;;;;5070315;28;20052;-70
2022/05/23 08:37:47;;;;;;;2.75;1.40;;;18.50;99.90;;;;;;5088798;28;20157;-70
2022/05/23 08:40:13;;;;;;;3.88;1.80;;;18.50;99.90;;;;;;5069441;28;20044;-70
2022/05/23 08:42:56;;;;;;;2.47;1.40;;;18.60;99.90;;;;;;5070656;28;20122;-70
2022/05/23 08:45:34;;;;;;;2.10;1.27;;;18.70;99.90;;;;;;5054130;28;20089;-70
2022/05/23 08:48:11;;;;;;;2.30;1.35;;;18.80;99.90;;;;;;5070421;28;20439;-70
2022/05/23 08:51:04;;;;;;;2.30;1.17;;;18.90;99.90;;;;;;5070357;28;20552;-70
2022/05/23 08:53:53;;;;;;;2.60;1.20;;;18.90;99.90;;;;;;5021101;28;20052;-70
2022/05/23 08:56:37;;;;;;;1.73;1.10;;;18.90;99.90;;;;;;5069578;28;20063;-70
2022/05/23 08:59:09;;;;;;;2.85;1.20;;;18.90;99.90;;;;;;5070271;28;20044;-70
2022/05/23 09:01:45;;;;;;;1.95;1.05;;;19.00;99.90;;;;;;5070480;28;20082;-70
2022/05/23 09:04:37;;;;;;;3.35;1.30;;;19.00;99.90;;;;;;5069865;28;20473;-70
2022/05/23 09:07:06;;;;;;;3.38;1.20;;;19.10;99.90;;;;;;5070055;28;20048;-70
2022/05/23 09:09:32;;;;;;;1.88;1.02;;;19.10;99.90;;;;;;5087134;28;20044;-70
2022/05/23 09:12:13;;;;;;;1.25;0.82;;;19.20;99.60;;;;;;5070259;28;20044;-70
2022/05/23 09:14:38;;;;;;;1.98;0.93;;;19.30;97.70;;;;;;5088084;28;20521;-70
2022/05/23 09:17:21;;;;;;;3.15;1.15;;;19.40;99.00;;;;;;5070288;28;20040;-70
2022/05/23 09:20:10;;;;;;;1.65;0.95;;;19.40;98.60;;;;;;5087806;28;20070;-70
2022/05/23 09:22:45;;;;;;;2.60;1.27;;;19.50;98.80;;;;;;5070273;28;20036;-70
2022/05/23 09:25:14;;;;;;;2.58;0.85;;;19.50;98.80;;;;;;5069010;28;20048;-70
2022/05/23 09:27:51;;;;;;;2.67;1.25;;;19.60;98.30;;;;;;5069865;28;20131;-70
2022/05/23 09:30:23;;;;;;;2.65;0.82;;;19.70;97.60;;;;;;5069704;28;20040;-70
2022/05/23 09:32:53;;;;;;;1.73;1.02;;;19.80;97.80;;;;;;5069771;28;20055;-70
2022/05/23 09:35:25;;;;;;;3.30;1.00;;;19.80;97.60;;;;;;5052717;28;20503;-70
2022/05/23 09:38:18;;;;;;;3.15;1.30;;;19.90;97.00;;;;;;5070820;28;20052;-70
2022/05/23 09:40:45;;;;;;;1.70;0.90;;;20.00;95.60;;;;;;5072254;28;20504;-70
2022/05/23 09:47:44;;;;;;;1.50;0.93;;;20.10;96.40;;;;;;5091732;28;20123;-70
2022/05/23 09:49:20;;;;;;;1.33;0.80;;;20.30;93.70;;;;;;5072543;28;20528;-70
2022/05/23 09:51:56;;;;;;;2.63;1.13;;;20.30;96.00;;;;;;5073170;28;20403;-70
2022/05/23 09:54:46;;;;;;;1.83;0.95;;;20.30;94.50;;;;;;5072564;28;20462;-70
2022/05/23 09:57:23;;;;;;;2.53;0.88;;;20.30;93.90;;;;;;5056927;28;20058;-70
2022/05/23 10:00:07;;;;;;;2.08;1.02;;;20.40;93.30;;;;;;5073116;28;20044;-70
2022/05/23 10:02:40;;;;;;;2.13;1.00;;;20.40;92.00;;;;;;5073566;28;20048;-70
2022/05/23 10:05:26;;;;;;;2.17;0.77;;;20.40;95.70;;;;;;5072990;28;20044;-70
2022/05/23 10:07:55;;;;;;;3.65;0.90;;;20.40;92.40;;;;;;5072963;28;20044;-70
2022/05/23 10:10:32;;;;;;;3.05;0.90;;;20.50;95.20;;;;;;5071845;28;20046;-70
2022/05/23 10:13:19;;;;;;;2.35;1.02;;;20.50;94.80;;;;;;5073454;28;20394;-70
2022/05/23 10:15:47;;;;;;;3.25;0.90;;;20.60;93.70;;;;;;5056304;28;20032;-70
2022/05/23 10:18:24;;;;;;;2.13;1.20;;;20.60;95.70;;;;;;5072791;28;20043;-70
2022/05/23 10:20:50;;;;;;;1.70;0.98;;;20.70;94.60;;;;;;5072717;28;20040;-70
2022/05/23 10:23:29;;;;;;;5.15;1.50;;;20.70;95.80;;;;;;5090620;28;20036;-70
2022/05/23 10:26:11;;;;;;;4.47;1.13;;;20.80;95.40;;;;;;5071644;28;20032;-70
2022/05/23 10:28:48;;;;;;;2.55;1.30;;;20.80;94.30;;;;;;5052417;28;20051;-70
2022/05/23 10:31:37;;;;;;;2.90;1.30;;;20.90;94.90;;;;;;5052486;28;20614;-70
2022/05/23 10:34:13;;;;;;;5.18;1.42;;;20.90;94.80;;;;;;5069850;28;20058;-70
2022/05/23 10:36:42;;;;;;;2.22;1.13;;;21.00;94.30;;;;;;5035803;28;20044;-70
2022/05/23 10:42:18;;;;;;;3.55;1.15;;;21.10;92.90;;;;;;5052565;28;20044;-70
2022/05/23 10:44:57;;;;;;;2.90;1.42;;;21.10;93.70;;;;;;5052250;28;20452;-70
2022/05/23 10:47:48;;;;;;;3.03;1.33;;;21.10;92.40;;;;;;5051979;28;20067;-70
2022/05/23 10:50:45;;;;;;;1.30;0.98;;;21.10;92.70;;;;;;5051215;28;20041;-70
2022/05/23 10:53:37;;;;;;;1.98;1.00;;;21.10;92.50;;;;;;5035690;28;20036;-70
2022/05/23 10:56:36;;;;;;;2.38;0.75;;;21.00;92.60;;;;;;5069242;28;20049;-70
2022/05/23 10:59:17;;;;;;;2.60;0.90;;;21.00;91.30;;;;;;5035525;28;20067;-70
2022/05/23 11:01:48;;;;;;;1.83;0.98;;;21.10;91.10;;;;;;5051790;28;20048;-70
2022/05/23 11:04:44;;;;;;;1.20;0.70;;;21.10;91.70;;;;;;5038159;28;20048;-70
2022/05/23 11:07:47;;;;;;;2.65;0.65;;;21.10;90.30;;;;;;5071609;28;20047;-70
2022/05/23 11:10:20;;;;;;;1.63;0.90;;;21.10;87.80;;;;;;5070804;28;20044;-70
2022/05/23 11:12:58;;;;;;;1.48;0.82;;;21.20;90.90;;;;;;5055533;28;20036;-70
2022/05/23 11:15:53;;;;;;;2.00;1.05;;;21.10;90.00;;;;;;5089954;28;20035;-70
2022/05/23 11:18:45;;;;;;;2.13;0.75;;;21.20;87.20;;;;;;5071747;28;20055;-70
2022/05/23 11:21:25;;;;;;;2.10;0.85;;;21.20;87.10;;;;;;5071206;28;20043;-70
2022/05/23 11:24:14;;;;;;;2.22;1.10;;;21.20;90.30;;;;;;5071742;28;20036;-70
2022/05/23 11:26:45;;;;;;;1.05;0.60;;;21.30;83.30;;;;;;5071465;28;20588;-70
2022/05/23 11:35:03;;;;;;;2.25;0.80;;;21.40;90.10;;;;;;5071476;28;20056;-70
2022/05/23 11:37:45;;;;;;;1.25;0.70;;;21.50;88.70;;;;;;5054389;28;20063;-70
2022/05/23 11:40:26;;;;;;;1.38;0.68;;;21.50;86.10;;;;;;5070014;28;20055;-70
2022/05/23 11:42:58;;;;;;;2.00;0.75;;;21.60;87.60;;;;;;5071513;28;20051;-70
2022/05/23 11:48:37;;;;;;;1.40;0.93;;;21.60;83.70;;;;;;5070669;28;20044;-70
2022/05/23 11:51:21;;;;;;;1.67;1.00;;;21.60;86.80;;;;;;5070753;28;20086;-70
2022/05/23 11:54:05;;;;;;;2.13;1.00;;;21.60;84.70;;;;;;5071337;28;20507;-70
2022/05/23 11:56:59;;;;;;;2.83;0.90;;;21.70;86.20;;;;;;5053199;28;20485;-70
2022/05/23 11:59:25;;;;;;;1.38;0.75;;;21.70;89.30;;;;;;5063100;28;20516;-70
2022/05/23 12:02:12;;;;;;;2.17;1.13;;;21.80;90.20;;;;;;5070336;28;20082;-70
2022/05/23 12:04:40;;;;;;;2.28;0.90;;;21.90;84.20;;;;;;5070244;28;20043;-70
2022/05/23 12:07:06;;;;;;;1.52;0.80;;;22.00;88.50;;;;;;5070708;28;20505;-70
2022/05/23 12:09:35;;;;;;;1.63;0.93;;;22.00;89.50;;;;;;5069506;28;20082;-70
2022/05/23 12:12:27;;;;;;;2.13;1.08;;;22.00;89.60;;;;;;5054111;28;20036;-70
2022/05/23 12:14:56;;;;;;;2.10;0.90;;;22.10;84.00;;;;;;5065571;28;20037;-70
2022/05/23 12:17:26;;;;;;;2.05;1.27;;;22.10;88.50;;;;;;5050191;28;20150;-70
2022/05/23 12:19:58;;;;;;;2.35;1.00;;;22.20;89.20;;;;;;5068243;28;20161;-70
2022/05/23 12:22:35;;;;;;;2.42;1.08;;;22.20;86.10;;;;;;5033598;28;20132;-70
2022/05/23 12:25:07;;;;;;;1.88;0.93;;;22.20;85.80;;;;;;5083459;28;20386;-69
2022/05/23 12:27:44;;;;;;;1.73;0.90;;;22.20;87.30;;;;;;5062520;28;20044;-70
2022/05/23 12:30:20;;;;;;;1.35;0.90;;;22.20;86.90;;;;;;5070210;28;20039;-70
2022/05/23 12:33:14;;;;;;;1.30;0.73;;;22.10;83.50;;;;;;5070292;28;20181;-70
2022/05/23 12:35:40;;;;;;;1.02;0.80;;;22.10;80.80;;;;;;5070639;28;20096;-70
2022/05/23 12:38:24;;;;;;;1.70;1.02;;;22.00;87.10;;;;;;5070507;28;20528;-70
2022/05/23 12:41:11;;;;;;;1.75;0.95;;;22.00;87.20;;;;;;5069348;28;20038;-70
2022/05/23 12:43:41;;;;;;;2.50;1.10;;;22.00;87.10;;;;;;5070713;28;20032;-70
2022/05/23 12:46:22;;;;;;;1.27;0.85;;;22.00;87.80;;;;;;5070363;28;20048;-70
2022/05/23 12:49:27;;;;;;;2.00;1.00;;;22.00;84.60;;;;;;5070430;28;20485;-70
2022/05/23 12:52:20;;;;;;;3.03;1.25;;;22.00;85.10;;;;;;5070451;28;20048;-70
2022/05/23 12:55:05;;;;;;;1.88;1.08;;;22.00;85.60;;;;;;5087215;28;20122;-70
2022/05/23 12:57:49;;;;;;;2.25;1.33;;;22.10;88.90;;;;;;5088646;28;20561;-70
2022/05/23 13:00:24;;;;;;;1.55;1.00;;;22.10;87.70;;;;;;5070318;28;20047;-70
2022/05/23 13:03:13;;;;;;;2.13;1.20;;;22.20;87.50;;;;;;5070242;28;20036;-69
2022/05/23 13:05:49;;;;;;;1.98;0.90;;;22.20;89.00;;;;;;5088074;28;20048;-70
2022/05/23 13:08:33;;;;;;;1.55;0.90;;;22.20;90.20;;;;;;5070131;28;20051;-70
2022/05/23 13:11:14;;;;;;;1.50;0.90;;;22.20;87.60;;;;;;5068920;28;20040;-70
2022/05/23 13:13:43;;;;;;;2.78;0.90;;;22.20;89.60;;;;;;5091968;28;20075;-70
2022/05/23 13:16:20;;;;;;;2.40;1.08;;;22.20;90.40;;;;;;5073839;28;20082;-70
2022/05/23 13:24:48;;;;;;;1.38;0.82;;;22.00;90.40;;;;;;5072993;28;20123;-70
2022/05/23 13:27:04;;;;;;;2.78;1.05;;;21.90;90.70;;;;;;5073575;28;20549;-70
2022/05/23 13:29:32;;;;;;;1.77;0.93;;;21.90;90.90;;;;;;5056653;28;20075;-70
2022/05/23 13:32:00;;;;;;;2.63;1.30;;;21.90;91.00;;;;;;5073457;28;20093;-70
2022/05/23 13:34:32;;;;;;;1.83;1.05;;;21.90;91.00;;;;;;5072848;28;20343;-70
2022/05/23 13:36:58;;;;;;;1.33;1.10;;;22.00;90.80;;;;;;5073297;28;20111;-70
2022/05/23 13:39:23;;;;;;;1.80;1.02;;;22.00;91.00;;;;;;5072217;28;20131;-70
2022/05/23 13:41:49;;;;;;;2.20;1.30;;;22.00;91.00;;;;;;5091640;28;20079;-70
2022/05/23 13:44:26;;;;;;;1.88;1.00;;;22.00;90.80;;;;;;5056603;28;20055;-70
2022/05/23 13:46:59;;;;;;;1.58;1.10;;;22.00;90.40;;;;;;5056944;28;20055;-70
2022/05/23 13:49:33;;;;;;;1.38;1.00;;;22.10;91.00;;;;;;5056392;28;20061;-70
2022/05/23 13:52:04;;;;;;;2.17;1.30;;;22.00;91.10;;;;;;5056578;28;20044;-70
2022/05/23 13:54:58;;;;;;;3.25;1.30;;;22.00;91.00;;;;;;5071971;28;20066;-70
2022/05/23 13:57:33;;;;;;;1.65;1.05;;;21.90;90.10;;;;;;5056318;28;20058;-70
2022/05/23 14:00:21;;;;;;;2.20;1.10;;;21.80;91.20;;;;;;5072985;28;20043;-70
2022/05/23 14:02:58;;;;;;;1.50;0.90;;;21.80;90.60;;;;;;5072976;28;20055;-70
2022/05/23 14:05:27;;;;;;;1.67;1.02;;;21.80;91.40;;;;;;5072770;28;20048;-70
2022/05/23 14:07:54;;;;;;;2.97;1.30;;;21.70;91.50;;;;;;5072765;28;20048;-70
2022/05/23 14:10:28;;;;;;;1.55;1.13;;;21.70;91.60;;;;;;5071645;28;20036;-70
2022/05/23 14:12:56;;;;;;;2.00;1.50;;;21.70;91.70;;;;;;5091499;28;20047;-70